createdAt,value
2023-12-28T00:00:22.683Z,93221.00
2023-12-28T00:01:22.683Z,93219.00
2023-12-28T00:02:22.624Z,93222.00
2023-12-28T00:03:22.694Z,93228.00
2023-12-28T00:04:22.724Z,93226.00
2023-12-28T00:05:22.696Z,93228.00
2023-12-28T00:06:22.734Z,93225.00
2023-12-28T00:07:22.758Z,93223.00
2023-12-28T00:08:22.796Z,93215.00
2023-12-28T00:09:22.883Z,93220.00
2023-12-28T00:10:22.898Z,93218.00
2023-12-28T00:11:22.938Z,93214.00
2023-12-28T00:12:22.992Z,93218.00
2023-12-28T00:13:23.038Z,93221.00
2023-12-28T00:14:23.088Z,93218.00
2023-12-28T00:15:23.197Z,93222.00
2023-12-28T00:16:23.226Z,93218.00
2023-12-28T00:17:23.314Z,93216.00
2023-12-28T00:18:23.918Z,93210.00
2023-12-28T00:19:23.713Z,93215.00
2023-12-28T00:20:23.498Z,93214.00
2023-12-28T00:21:23.608Z,93211.00
2023-12-28T00:22:23.613Z,93203.00
2023-12-28T00:23:23.699Z,93221.00
2023-12-28T00:24:23.823Z,93218.00
2023-12-28T00:25:23.825Z,93215.00
2023-12-28T00:26:23.906Z,93214.00
2023-12-28T00:27:24.033Z,93222.00
2023-12-28T00:28:24.036Z,93225.00
2023-12-28T00:29:24.100Z,93228.00
2023-12-28T00:30:24.203Z,93229.00
2023-12-28T00:31:24.404Z,93236.00
2023-12-28T00:32:24.282Z,93234.00
2023-12-28T00:33:24.450Z,93225.00
2023-12-28T00:34:24.508Z,93216.00
2023-12-28T00:35:24.556Z,93232.00
2023-12-28T00:36:24.623Z,93229.00
2023-12-28T00:37:24.649Z,93231.00
2023-12-28T00:38:24.698Z,93230.00
2023-12-28T00:39:24.795Z,93226.00
2023-12-28T00:40:24.805Z,93230.00
2023-12-28T00:41:24.879Z,93224.00
2023-12-28T00:42:24.994Z,93227.00
2023-12-28T00:43:25.033Z,93227.00
2023-12-28T00:44:25.070Z,93223.00
2023-12-28T00:45:25.195Z,93221.00
2023-12-28T00:46:25.198Z,93225.00
2023-12-28T00:47:25.284Z,93222.00
2023-12-28T00:48:25.632Z,93221.00
2023-12-28T00:49:25.408Z,93217.00
2023-12-28T00:50:25.390Z,93222.00
2023-12-28T00:51:25.491Z,93224.00
2023-12-28T00:52:25.436Z,93224.00
2023-12-28T00:53:25.489Z,93228.00
2023-12-28T00:54:25.613Z,93228.00
2023-12-28T00:55:25.637Z,93222.00
2023-12-28T00:56:25.695Z,93227.00
2023-12-28T00:57:25.808Z,93229.00
2023-12-28T00:58:25.838Z,93227.00
2023-12-28T00:59:25.918Z,93237.00
2023-12-28T01:00:26.028Z,93223.00
2023-12-28T01:01:26.075Z,93232.00
2023-12-28T01:02:26.102Z,93226.00
2023-12-28T01:03:26.267Z,93226.00
2023-12-28T01:04:26.261Z,93228.00
2023-12-28T01:05:26.309Z,93229.00
2023-12-28T01:06:26.399Z,93229.00
2023-12-28T01:07:26.437Z,93231.00
2023-12-28T01:08:26.501Z,93223.00
2023-12-28T01:09:26.571Z,93221.00
2023-12-28T01:10:26.642Z,93228.00
2023-12-28T01:11:26.722Z,93230.00
2023-12-28T01:12:26.833Z,93234.00
2023-12-28T01:13:26.864Z,93236.00
2023-12-28T01:14:26.924Z,93232.00
2023-12-28T01:15:27.007Z,93237.00
2023-12-28T01:16:27.034Z,93236.00
2023-12-28T01:17:27.165Z,93235.00
2023-12-28T01:18:27.546Z,93234.00
2023-12-28T01:19:27.372Z,93239.00
2023-12-28T01:20:27.355Z,93241.00
2023-12-28T01:21:27.346Z,93243.00
2023-12-28T01:22:27.339Z,93242.00
2023-12-28T01:23:27.416Z,93240.00
2023-12-28T01:24:27.513Z,93240.00
2023-12-28T01:25:27.548Z,93241.00
2023-12-28T01:26:27.580Z,93237.00
2023-12-28T01:27:27.651Z,93239.00
2023-12-28T01:28:27.663Z,93237.00
2023-12-28T01:29:27.749Z,93235.00
2023-12-28T01:30:27.911Z,93232.00
2023-12-28T01:31:28.017Z,93234.00
2023-12-28T01:32:27.967Z,93240.00
2023-12-28T01:33:28.111Z,93240.00
2023-12-28T01:34:28.139Z,93238.00
2023-12-28T01:35:28.116Z,93235.00
2023-12-28T01:36:28.242Z,93239.00
2023-12-28T01:37:28.253Z,93234.00
2023-12-28T01:38:28.299Z,93234.00
2023-12-28T01:39:28.373Z,93225.00
2023-12-28T01:40:28.431Z,93221.00
2023-12-28T01:41:28.473Z,93225.00
2023-12-28T01:42:28.582Z,93221.00
2023-12-28T01:43:28.634Z,93224.00
2023-12-28T01:44:28.743Z,93224.00
2023-12-28T01:45:28.769Z,93230.00
2023-12-28T01:46:28.841Z,93224.00
2023-12-28T01:47:28.926Z,93222.00
2023-12-28T01:48:29.119Z,93214.00
2023-12-28T01:49:29.138Z,93215.00
2023-12-28T01:50:29.079Z,93219.00
2023-12-28T01:51:29.175Z,93215.00
2023-12-28T01:52:29.274Z,93212.00
2023-12-28T01:53:29.358Z,93212.00
2023-12-28T01:54:29.393Z,93219.00
2023-12-28T01:55:29.423Z,93216.00
2023-12-28T01:56:29.460Z,93218.00
2023-12-28T01:57:29.547Z,93224.00
2023-12-28T01:58:29.580Z,93226.00
2023-12-28T01:59:29.660Z,93222.00
2023-12-28T02:00:29.734Z,93227.00
2023-12-28T02:01:29.857Z,93233.00
2023-12-28T02:02:29.873Z,93233.00
2023-12-28T02:03:29.933Z,93231.00
2023-12-28T02:04:30.280Z,93230.00
2023-12-28T02:05:30.071Z,93233.00
2023-12-28T02:06:30.175Z,93229.00
2023-12-28T02:07:30.188Z,93232.00
2023-12-28T02:08:30.246Z,93237.00
2023-12-28T02:09:30.354Z,93238.00
2023-12-28T02:10:30.380Z,93232.00
2023-12-28T02:11:30.456Z,93238.00
2023-12-28T02:12:30.543Z,93231.00
2023-12-28T02:13:30.591Z,93230.00
2023-12-28T02:14:30.649Z,93220.00
2023-12-28T02:15:30.792Z,93228.00
2023-12-28T02:16:30.813Z,93230.00
2023-12-28T02:17:30.892Z,93228.00
2023-12-28T02:18:31.065Z,93224.00
2023-12-28T02:19:31.009Z,93221.00
2023-12-28T02:20:31.047Z,93226.00
2023-12-28T02:21:31.169Z,93230.00
2023-12-28T02:22:31.188Z,93236.00
2023-12-28T02:23:31.248Z,93232.00
2023-12-28T02:24:31.386Z,93236.00
2023-12-28T02:25:31.402Z,93241.00
2023-12-28T02:26:31.473Z,93231.00
2023-12-28T02:27:31.538Z,93241.00
2023-12-28T02:28:31.577Z,93240.00
2023-12-28T02:29:31.652Z,93241.00
2023-12-28T02:30:31.764Z,93241.00
2023-12-28T02:31:31.831Z,93241.00
2023-12-28T02:32:31.894Z,93244.00
2023-12-28T02:33:32.017Z,93238.00
2023-12-28T02:34:32.032Z,93238.00
2023-12-28T02:35:32.024Z,93232.00
2023-12-28T02:36:32.114Z,93235.00
2023-12-28T02:37:32.148Z,93232.00
2023-12-28T02:38:32.238Z,93228.00
2023-12-28T02:39:32.323Z,93227.00
2023-12-28T02:40:32.353Z,93232.00
2023-12-28T02:41:32.418Z,93235.00
2023-12-28T02:42:32.497Z,93234.00
2023-12-28T02:43:32.553Z,93231.00
2023-12-28T02:44:32.654Z,93226.00
2023-12-28T02:45:32.750Z,93226.00
2023-12-28T02:46:32.742Z,93224.00
2023-12-28T02:47:32.855Z,93230.00
2023-12-28T02:48:33.140Z,93224.00
2023-12-28T02:49:33.047Z,93227.00
2023-12-28T02:50:33.013Z,93225.00
2023-12-28T02:51:33.114Z,93227.00
2023-12-28T02:52:33.150Z,93233.00
2023-12-28T02:53:33.204Z,93239.00
2023-12-28T02:54:33.317Z,93235.00
2023-12-28T02:55:33.319Z,93234.00
2023-12-28T02:56:33.414Z,93231.00
2023-12-28T02:57:33.480Z,93233.00
2023-12-28T02:58:33.552Z,93232.00
2023-12-28T02:59:33.594Z,93229.00
2023-12-28T03:00:33.759Z,93231.00
2023-12-28T03:01:33.755Z,93230.00
2023-12-28T03:02:33.804Z,93233.00
2023-12-28T03:03:33.890Z,93230.00
2023-12-28T03:04:33.881Z,93236.00
2023-12-28T03:05:34.131Z,93234.00
2023-12-28T03:06:34.023Z,93238.00
2023-12-28T03:07:34.084Z,93241.00
2023-12-28T03:08:34.094Z,93243.00
2023-12-28T03:09:34.253Z,93237.00
2023-12-28T03:10:34.185Z,93238.00
2023-12-28T03:11:34.237Z,93241.00
2023-12-28T03:12:34.333Z,93243.00
2023-12-28T03:13:34.356Z,93252.00
2023-12-28T03:14:34.412Z,93246.00
2023-12-28T03:15:34.527Z,93249.00
2023-12-28T03:16:35.435Z,93248.00
2023-12-28T03:17:34.616Z,93250.00
2023-12-28T03:18:34.788Z,93249.00
2023-12-28T03:19:34.723Z,93252.00
2023-12-28T03:20:34.719Z,93256.00
2023-12-28T03:21:34.806Z,93250.00
2023-12-28T03:22:34.852Z,93249.00
2023-12-28T03:23:34.901Z,93251.00
2023-12-28T03:24:34.972Z,93253.00
2023-12-28T03:25:34.974Z,93254.00
2023-12-28T03:26:35.049Z,93256.00
2023-12-28T03:27:35.157Z,93259.00
2023-12-28T03:28:35.123Z,93258.00
2023-12-28T03:29:35.225Z,93260.00
2023-12-28T03:30:35.284Z,93259.00
2023-12-28T03:31:35.370Z,93258.00
2023-12-28T03:32:35.399Z,93256.00
2023-12-28T03:33:35.420Z,93252.00
2023-12-28T03:34:35.583Z,93256.00
2023-12-28T03:35:35.462Z,93252.00
2023-12-28T03:36:35.559Z,93245.00
2023-12-28T03:37:35.611Z,93252.00
2023-12-28T03:38:35.675Z,93252.00
2023-12-28T03:39:35.778Z,93250.00
2023-12-28T03:40:35.793Z,93252.00
2023-12-28T03:41:35.829Z,93247.00
2023-12-28T03:42:35.881Z,93243.00
2023-12-28T03:43:35.940Z,93247.00
2023-12-28T03:44:35.961Z,93250.00
2023-12-28T03:45:36.100Z,93249.00
2023-12-28T03:46:36.073Z,93252.00
2023-12-28T03:47:36.158Z,93251.00
2023-12-28T03:48:36.255Z,93249.00
2023-12-28T03:49:36.417Z,93250.00
2023-12-28T03:50:36.311Z,93247.00
2023-12-28T03:51:36.442Z,93243.00
2023-12-28T03:52:36.418Z,93242.00
2023-12-28T03:53:36.440Z,93235.00
2023-12-28T03:54:36.543Z,93233.00
2023-12-28T03:55:36.582Z,93232.00
2023-12-28T03:56:36.627Z,93232.00
2023-12-28T03:57:36.726Z,93225.00
2023-12-28T03:58:36.732Z,93223.00
2023-12-28T03:59:36.850Z,93220.00
2023-12-28T04:00:36.948Z,93220.00
2023-12-28T04:01:36.943Z,93220.00
2023-12-28T04:02:36.974Z,93216.00
2023-12-28T04:03:37.043Z,93219.00
2023-12-28T04:04:37.168Z,93219.00
2023-12-28T04:05:37.214Z,93218.00
2023-12-28T04:06:37.224Z,93220.00
2023-12-28T04:07:37.244Z,93219.00
2023-12-28T04:08:37.317Z,93219.00
2023-12-28T04:09:37.469Z,93219.00
2023-12-28T04:10:37.426Z,93228.00
2023-12-28T04:11:37.501Z,93227.00
2023-12-28T04:12:37.610Z,93217.00
2023-12-28T04:13:37.596Z,93224.00
2023-12-28T04:14:37.668Z,93220.00
2023-12-28T04:15:37.784Z,93223.00
2023-12-28T04:16:37.787Z,93223.00
2023-12-28T04:17:37.846Z,93226.00
2023-12-28T04:18:38.032Z,93228.00
2023-12-28T04:19:38.000Z,93231.00
2023-12-28T04:20:37.950Z,93233.00
2023-12-28T04:21:45.235Z,93229.00
2023-12-28T04:22:45.231Z,93228.00
2023-12-28T04:23:45.176Z,93229.00
2023-12-28T04:24:45.222Z,93225.00
2023-12-28T04:25:45.149Z,93228.00
2023-12-28T04:26:45.163Z,93229.00
2023-12-28T04:27:45.189Z,93230.00
2023-12-28T04:28:45.150Z,93226.00
2023-12-28T04:29:45.182Z,93227.00
2023-12-28T04:30:45.249Z,93225.00
2023-12-28T04:31:52.458Z,93230.00
2023-12-28T04:32:52.472Z,93228.00
2023-12-28T04:33:52.532Z,93232.00
2023-12-28T04:34:52.502Z,93231.00
2023-12-28T04:35:52.438Z,93229.00
2023-12-28T04:36:52.475Z,93228.00
2023-12-28T04:37:52.431Z,93227.00
2023-12-28T04:38:52.436Z,93229.00
2023-12-28T04:39:52.512Z,93231.00
2023-12-28T04:40:52.430Z,93234.00
2023-12-28T04:41:52.424Z,93237.00
2023-12-28T04:42:52.490Z,93237.00
2023-12-28T04:43:52.455Z,93238.00
2023-12-28T04:44:52.446Z,93240.00
2023-12-28T04:45:52.474Z,93240.00
2023-12-28T04:46:52.437Z,93240.00
2023-12-28T04:47:52.561Z,93238.00
2023-12-28T04:48:52.697Z,93241.00
2023-12-28T04:49:52.546Z,93242.00
2023-12-28T04:50:52.452Z,93245.00
2023-12-28T04:51:52.522Z,93248.00
2023-12-28T04:52:52.472Z,93246.00
2023-12-28T04:53:52.486Z,93248.00
2023-12-28T04:54:52.550Z,93244.00
2023-12-28T04:55:52.491Z,93243.00
2023-12-28T04:56:52.496Z,93240.00
2023-12-28T04:57:52.614Z,93240.00
2023-12-28T04:58:52.481Z,93241.00
2023-12-28T04:59:52.482Z,93244.00
2023-12-28T05:00:52.665Z,93251.00
2023-12-28T05:01:52.514Z,93248.00
2023-12-28T05:02:52.472Z,93249.00
2023-12-28T05:03:52.540Z,93249.00
2023-12-28T05:04:52.629Z,93253.00
2023-12-28T05:05:52.504Z,93254.00
2023-12-28T05:07:52.474Z,93251.00
2023-12-28T05:08:52.476Z,93251.00
2023-12-28T05:09:52.562Z,93252.00
2023-12-28T05:10:52.487Z,93244.00
2023-12-28T05:11:52.503Z,93243.00
2023-12-28T05:12:52.545Z,93245.00
2023-12-28T05:13:52.497Z,93244.00
2023-12-28T05:14:52.489Z,93247.00
2023-12-28T05:15:52.573Z,93247.00
2023-12-28T05:16:52.518Z,93249.00
2023-12-28T05:17:52.627Z,93248.00
2023-12-28T05:18:52.670Z,93251.00
2023-12-28T05:19:52.670Z,93251.00
2023-12-28T05:20:52.490Z,93251.00
2023-12-28T05:21:52.533Z,93252.00
2023-12-28T05:22:52.530Z,93253.00
2023-12-28T05:23:52.507Z,93251.00
2023-12-28T05:24:52.577Z,93252.00
2023-12-28T05:25:52.566Z,93248.00
2023-12-28T05:26:52.652Z,93244.00
2023-12-28T05:27:52.806Z,93249.00
2023-12-28T05:28:52.780Z,93253.00
2023-12-28T05:29:52.850Z,93239.00
2023-12-28T05:30:52.955Z,93249.00
2023-12-28T05:31:52.934Z,93249.00
2023-12-28T05:32:53.013Z,93253.00
2023-12-28T05:33:53.089Z,93250.00
2023-12-28T05:34:53.068Z,93255.00
2023-12-28T05:35:53.118Z,93264.00
2023-12-28T05:36:53.177Z,93262.00
2023-12-28T05:37:53.222Z,93261.00
2023-12-28T05:38:53.285Z,93261.00
2023-12-28T05:39:53.373Z,93258.00
2023-12-28T05:40:53.415Z,93262.00
2023-12-28T05:41:53.460Z,93263.00
2023-12-28T05:42:53.618Z,93271.00
2023-12-28T05:43:53.596Z,93267.00
2023-12-28T05:44:53.657Z,93266.00
2023-12-28T05:45:53.722Z,93268.00
2023-12-28T05:46:53.773Z,93260.00
2023-12-28T05:47:53.889Z,93267.00
2023-12-28T05:48:53.888Z,93269.00
2023-12-28T05:49:54.027Z,93269.00
2023-12-28T05:50:53.958Z,93275.00
2023-12-28T05:51:54.102Z,93273.00
2023-12-28T05:52:54.095Z,93274.00
2023-12-28T05:53:54.187Z,93280.00
2023-12-28T05:54:54.280Z,93281.00
2023-12-28T05:55:54.286Z,93281.00
2023-12-28T05:56:54.324Z,93279.00
2023-12-28T05:57:54.464Z,93282.00
2023-12-28T05:58:54.446Z,93275.00
2023-12-28T05:59:54.500Z,93275.00
2023-12-28T06:00:54.607Z,93270.00
2023-12-28T06:01:54.601Z,93273.00
2023-12-28T06:02:54.669Z,93279.00
2023-12-28T06:03:54.767Z,93279.00
2023-12-28T06:04:55.026Z,93277.00
2023-12-28T06:05:54.860Z,93278.00
2023-12-28T06:06:54.900Z,93280.00
2023-12-28T06:07:54.942Z,93281.00
2023-12-28T06:08:54.976Z,93278.00
2023-12-28T06:09:55.064Z,93279.00
2023-12-28T06:10:55.094Z,93281.00
2023-12-28T06:11:55.153Z,93279.00
2023-12-28T06:12:55.247Z,93283.00
2023-12-28T06:13:55.220Z,93284.00
2023-12-28T06:14:55.268Z,93281.00
2023-12-28T06:15:55.440Z,93277.00
2023-12-28T06:16:55.371Z,93277.00
2023-12-28T06:17:55.512Z,93280.00
2023-12-28T06:18:55.568Z,93273.00
2023-12-28T06:19:55.621Z,93274.00
2023-12-28T06:20:55.567Z,93273.00
2023-12-28T06:21:55.713Z,93275.00
2023-12-28T06:22:55.657Z,93278.00
2023-12-28T06:23:55.687Z,93272.00
2023-12-28T06:24:55.810Z,93276.00
2023-12-28T06:25:55.767Z,93278.00
2023-12-28T06:26:55.839Z,93282.00
2023-12-28T06:27:55.984Z,93285.00
2023-12-28T06:28:55.913Z,93283.00
2023-12-28T06:29:55.956Z,93280.00
2023-12-28T06:30:56.043Z,93268.00
2023-12-28T06:31:56.027Z,93273.00
2023-12-28T06:32:56.217Z,93272.00
2023-12-28T06:33:56.350Z,93270.00
2023-12-28T06:34:56.184Z,93268.00
2023-12-28T06:35:56.207Z,93266.00
2023-12-28T06:36:56.241Z,93267.00
2023-12-28T06:37:56.546Z,93274.00
2023-12-28T06:38:56.295Z,93269.00
2023-12-28T06:39:56.442Z,93268.00
2023-12-28T06:40:56.381Z,93273.00
2023-12-28T06:41:56.435Z,93271.00
2023-12-28T06:42:56.642Z,93268.00
2023-12-28T06:43:56.506Z,93269.00
2023-12-28T06:44:56.584Z,93271.00
2023-12-28T06:45:56.609Z,93269.00
2023-12-28T06:46:56.622Z,93268.00
2023-12-28T06:47:57.064Z,93271.00
2023-12-28T06:48:56.795Z,93267.00
2023-12-28T06:49:56.986Z,93268.00
2023-12-28T06:50:56.839Z,93272.00
2023-12-28T06:51:57.115Z,93271.00
2023-12-28T06:52:56.927Z,93267.00
2023-12-28T06:53:56.975Z,93275.00
2023-12-28T06:54:57.047Z,93278.00
2023-12-28T06:55:57.051Z,93275.00
2023-12-28T06:56:57.094Z,93273.00
2023-12-28T06:57:57.721Z,93273.00
2023-12-28T06:58:57.252Z,93274.00
2023-12-28T06:59:57.296Z,93274.00
2023-12-28T07:00:57.471Z,93276.00
2023-12-28T07:01:57.426Z,93274.00
2023-12-28T07:02:57.496Z,93273.00
2023-12-28T07:03:57.553Z,93274.00
2023-12-28T07:04:57.626Z,93276.00
2023-12-28T07:05:57.662Z,93275.00
2023-12-28T07:06:57.743Z,93274.00
2023-12-28T07:07:57.982Z,93273.00
2023-12-28T07:08:57.805Z,93276.00
2023-12-28T07:09:57.898Z,93283.00
2023-12-28T07:10:57.931Z,93283.00
2023-12-28T07:11:57.970Z,93283.00
2023-12-28T07:12:58.030Z,93283.00
2023-12-28T07:13:58.050Z,93283.00
2023-12-28T07:14:58.120Z,93286.00
2023-12-28T07:15:59.935Z,93286.00
2023-12-28T07:16:58.180Z,93282.00
2023-12-28T07:17:58.602Z,93281.00
2023-12-28T07:18:58.308Z,93284.00
2023-12-28T07:19:58.218Z,93284.00
2023-12-28T07:20:58.165Z,93285.00
2023-12-28T07:21:58.221Z,93289.00
2023-12-28T07:22:58.181Z,93289.00
2023-12-28T07:23:58.176Z,93287.00
2023-12-28T07:24:58.271Z,93288.00
2023-12-28T07:25:58.170Z,93286.00
2023-12-28T07:26:59.111Z,93284.00
2023-12-28T07:27:58.553Z,93283.00
2023-12-28T07:28:58.189Z,93283.00
2023-12-28T07:29:58.171Z,93287.00
2023-12-28T07:30:58.239Z,93286.00
2023-12-28T07:31:58.177Z,93283.00
2023-12-28T07:32:58.246Z,93284.00
2023-12-28T07:33:58.296Z,93287.00
2023-12-28T07:34:58.212Z,93284.00
2023-12-28T07:35:58.200Z,93291.00
2023-12-28T07:36:58.254Z,93289.00
2023-12-28T07:37:58.470Z,93293.00
2023-12-28T07:38:58.201Z,93290.00
2023-12-28T07:39:58.261Z,93289.00
2023-12-28T07:40:58.194Z,93288.00
2023-12-28T07:41:58.201Z,93287.00
2023-12-28T07:42:58.475Z,93285.00
2023-12-28T07:43:58.187Z,93286.00
2023-12-28T07:44:58.207Z,93285.00
2023-12-28T07:45:58.262Z,93284.00
2023-12-28T07:46:58.197Z,93281.00
2023-12-28T07:47:58.835Z,93279.00
2023-12-28T07:48:58.267Z,93279.00
2023-12-28T07:49:58.262Z,93279.00
2023-12-28T07:50:58.218Z,93279.00
2023-12-28T07:51:58.245Z,93276.00
2023-12-28T07:52:58.211Z,93281.00
2023-12-28T07:53:58.210Z,93279.00
2023-12-28T07:54:58.250Z,93280.00
2023-12-28T07:55:58.273Z,93288.00
2023-12-28T07:56:58.285Z,93293.00
2023-12-28T07:57:58.656Z,93291.00
2023-12-28T07:58:58.335Z,93295.00
2023-12-28T07:59:58.480Z,93297.00
2023-12-28T08:00:58.421Z,93298.00
2023-12-28T08:01:58.430Z,93296.00
2023-12-28T08:02:58.462Z,93289.00
2023-12-28T08:03:58.532Z,93289.00
2023-12-28T08:04:58.613Z,93287.00
2023-12-28T08:05:58.579Z,93286.00
2023-12-28T08:06:58.663Z,93284.00
2023-12-28T08:07:58.906Z,93281.00
2023-12-28T08:08:58.707Z,93282.00
2023-12-28T08:09:58.904Z,93289.00
2023-12-28T08:10:58.829Z,93293.00
2023-12-28T08:11:58.879Z,93294.00
2023-12-28T08:12:59.040Z,93288.00
2023-12-28T08:13:59.006Z,93290.00
2023-12-28T08:14:59.083Z,93288.00
2023-12-28T08:15:59.224Z,93282.00
2023-12-28T08:16:59.199Z,93280.00
2023-12-28T08:17:59.736Z,93279.00
2023-12-28T08:18:59.373Z,93278.00
2023-12-28T08:19:59.618Z,93278.00
2023-12-28T08:20:59.463Z,93275.00
2023-12-28T08:21:59.534Z,93278.00
2023-12-28T08:23:10.520Z,93268.00
2023-12-28T08:24:00.621Z,93272.00
2023-12-28T08:24:59.695Z,93279.00
2023-12-28T08:25:59.602Z,93275.00
2023-12-28T08:26:59.602Z,93268.00
2023-12-28T08:27:59.852Z,93271.00
2023-12-28T08:28:59.616Z,93270.00
2023-12-28T08:29:59.592Z,93281.00
2023-12-28T08:30:59.687Z,93278.00
2023-12-28T08:31:59.717Z,93277.00
2023-12-28T08:32:59.985Z,93275.00
2023-12-28T08:33:59.884Z,93283.00
2023-12-28T08:34:59.946Z,93284.00
2023-12-28T08:35:59.908Z,93284.00
2023-12-28T08:37:00.041Z,93288.00
2023-12-28T08:38:00.470Z,93285.00
2023-12-28T08:39:00.049Z,93286.00
2023-12-28T08:40:00.186Z,93291.00
2023-12-28T08:41:00.201Z,93291.00
2023-12-28T08:42:00.246Z,93294.00
2023-12-28T08:43:00.407Z,93296.00
2023-12-28T08:44:00.370Z,93294.00
2023-12-28T08:45:00.462Z,93295.00
2023-12-28T08:46:00.573Z,93290.00
2023-12-28T08:47:00.521Z,93296.00
2023-12-28T08:48:00.930Z,93295.00
2023-12-28T08:49:00.657Z,93291.00
2023-12-28T08:50:00.802Z,93289.00
2023-12-28T08:51:00.696Z,93285.00
2023-12-28T08:52:00.772Z,93287.00
2023-12-28T08:53:00.778Z,93280.00
2023-12-28T08:54:00.820Z,93281.00
2023-12-28T08:55:00.896Z,93281.00
2023-12-28T08:56:00.872Z,93283.00
2023-12-28T08:57:00.917Z,93274.00
2023-12-28T08:58:01.206Z,93276.00
2023-12-28T08:59:00.958Z,93274.00
2023-12-28T09:00:01.011Z,93268.00
2023-12-28T09:01:01.096Z,93265.00
2023-12-28T09:02:01.056Z,93266.00
2023-12-28T09:03:01.141Z,93274.00
2023-12-28T09:04:01.389Z,93263.00
2023-12-28T09:05:01.160Z,93264.00
2023-12-28T09:06:01.254Z,93267.00
2023-12-28T09:07:01.220Z,93276.00
2023-12-28T09:08:01.437Z,93278.00
2023-12-28T09:09:01.274Z,93276.00
2023-12-28T09:10:01.472Z,93272.00
2023-12-28T09:11:01.385Z,93269.00
2023-12-28T09:12:01.454Z,93272.00
2023-12-28T09:13:01.555Z,93277.00
2023-12-28T09:14:01.560Z,93277.00
2023-12-28T09:15:01.583Z,93274.00
2023-12-28T09:16:03.847Z,93275.00
2023-12-28T09:17:01.641Z,93272.00
2023-12-28T09:18:02.030Z,93275.00
2023-12-28T09:19:01.769Z,93272.00
2023-12-28T09:20:01.646Z,93260.00
2023-12-28T09:21:01.615Z,93263.00
2023-12-28T09:22:01.664Z,93271.00
2023-12-28T09:23:01.593Z,93272.00
2023-12-28T09:24:01.601Z,93281.00
2023-12-28T09:25:01.679Z,93274.00
2023-12-28T09:26:01.615Z,93277.00
2023-12-28T09:27:01.591Z,93273.00
2023-12-28T09:28:01.933Z,93263.00
2023-12-28T09:29:01.609Z,93269.00
2023-12-28T09:30:01.651Z,93272.00
2023-12-28T09:31:01.715Z,93270.00
2023-12-28T09:32:01.597Z,93270.00
2023-12-28T09:33:01.983Z,93265.00
2023-12-28T09:34:01.738Z,93268.00
2023-12-28T09:35:01.708Z,93266.00
2023-12-28T09:36:01.609Z,93267.00
2023-12-28T09:37:01.671Z,93267.00
2023-12-28T09:38:01.863Z,93265.00
2023-12-28T09:39:01.601Z,93269.00
2023-12-28T09:40:01.722Z,93265.00
2023-12-28T09:41:01.616Z,93257.00
2023-12-28T09:42:01.636Z,93259.00
2023-12-28T09:43:01.818Z,93257.00
2023-12-28T09:44:01.649Z,93262.00
2023-12-28T09:45:01.662Z,93260.00
2023-12-28T09:46:01.759Z,93257.00
2023-12-28T09:47:01.710Z,93254.00
2023-12-28T09:48:01.910Z,93252.00
2023-12-28T09:49:01.898Z,93249.00
2023-12-28T09:50:02.700Z,93249.00
2023-12-28T09:51:01.940Z,93249.00
2023-12-28T09:52:02.029Z,93243.00
2023-12-28T09:53:01.998Z,93240.00
2023-12-28T09:54:01.988Z,93239.00
2023-12-28T09:55:02.175Z,93242.00
2023-12-28T09:56:02.035Z,93251.00
2023-12-28T09:57:02.103Z,93250.00
2023-12-28T09:58:02.103Z,93246.00
2023-12-28T09:59:02.111Z,93247.00
2023-12-28T10:00:02.156Z,93247.00
2023-12-28T10:01:02.257Z,93250.00
2023-12-28T10:02:02.255Z,93248.00
2023-12-28T10:03:02.577Z,93250.00
2023-12-28T10:04:02.403Z,93255.00
2023-12-28T10:05:02.429Z,93252.00
2023-12-28T10:06:02.537Z,93247.00
2023-12-28T10:07:02.590Z,93247.00
2023-12-28T10:08:02.606Z,93241.00
2023-12-28T10:09:02.670Z,93244.00
2023-12-28T10:10:02.837Z,93240.00
2023-12-28T10:11:02.918Z,93238.00
2023-12-28T10:12:02.873Z,93233.00
2023-12-28T10:13:03.243Z,93235.00
2023-12-28T10:14:03.017Z,93230.00
2023-12-28T10:15:03.083Z,93225.00
2023-12-28T10:16:03.190Z,93224.00
2023-12-28T10:17:03.208Z,93221.00
2023-12-28T10:18:03.291Z,93221.00
2023-12-28T10:19:03.342Z,93215.00
2023-12-28T10:20:03.422Z,93210.00
2023-12-28T10:21:03.432Z,93217.00
2023-12-28T10:22:03.553Z,93212.00
2023-12-28T10:23:03.688Z,93204.00
2023-12-28T10:24:04.156Z,93204.00
2023-12-28T10:25:03.817Z,93203.00
2023-12-28T10:26:03.783Z,93202.00
2023-12-28T10:27:03.832Z,93197.00
2023-12-28T10:28:03.970Z,93196.00
2023-12-28T10:29:03.972Z,93184.00
2023-12-28T10:30:04.028Z,93184.00
2023-12-28T10:31:04.189Z,93184.00
2023-12-28T10:32:04.126Z,93179.00
2023-12-28T10:33:04.501Z,93175.00
2023-12-28T10:34:04.605Z,93171.00
2023-12-28T10:35:04.279Z,93173.00
2023-12-28T10:36:04.324Z,93169.00
2023-12-28T10:37:04.428Z,93171.00
2023-12-28T10:38:04.379Z,93167.00
2023-12-28T10:39:04.438Z,93170.00
2023-12-28T10:40:04.515Z,93166.00
2023-12-28T10:41:04.509Z,93168.00
2023-12-28T10:42:04.519Z,93165.00
2023-12-28T10:43:05.071Z,93165.00
2023-12-28T10:44:07.580Z,93155.00
2023-12-28T10:45:04.663Z,93155.00
2023-12-28T10:46:04.722Z,93156.00
2023-12-28T10:47:04.662Z,93151.00
2023-12-28T10:48:04.745Z,93149.00
2023-12-28T10:49:04.707Z,93144.00
2023-12-28T10:50:04.859Z,93144.00
2023-12-28T10:51:04.672Z,93140.00
2023-12-28T10:52:04.721Z,93126.00
2023-12-28T10:53:04.664Z,93128.00
2023-12-28T10:54:04.698Z,93127.00
2023-12-28T10:55:04.703Z,93118.00
2023-12-28T10:56:04.675Z,93117.00
2023-12-28T10:57:04.671Z,93113.00
2023-12-28T10:58:04.710Z,93115.00
2023-12-28T10:59:04.720Z,93115.00
2023-12-28T11:00:04.734Z,93124.00
2023-12-28T11:01:04.777Z,93123.00
2023-12-28T11:02:07.095Z,93116.00
2023-12-28T11:03:04.841Z,93129.00
2023-12-28T11:04:04.809Z,93117.00
2023-12-28T11:05:04.768Z,93121.00
2023-12-28T11:06:04.753Z,93119.00
2023-12-28T11:07:04.828Z,93110.00
2023-12-28T11:08:04.739Z,93119.00
2023-12-28T11:09:05.558Z,93118.00
2023-12-28T11:10:04.828Z,93124.00
2023-12-28T11:11:04.749Z,93125.00
2023-12-28T11:12:04.766Z,93117.00
2023-12-28T11:13:04.821Z,93121.00
2023-12-28T11:14:04.761Z,93116.00
2023-12-28T11:15:06.043Z,93118.00
2023-12-28T11:16:04.770Z,93113.00
2023-12-28T11:17:04.815Z,93108.00
2023-12-28T11:18:04.898Z,93104.00
2023-12-28T11:19:04.838Z,93108.00
2023-12-28T11:20:04.782Z,93105.00
2023-12-28T11:21:05.197Z,93102.00
2023-12-28T11:22:04.825Z,93103.00
2023-12-28T11:23:04.784Z,93106.00
2023-12-28T11:24:04.782Z,93100.00
2023-12-28T11:25:04.889Z,93094.00
2023-12-28T11:26:04.868Z,93089.00
2023-12-28T11:27:06.124Z,93087.00
2023-12-28T11:28:05.018Z,93089.00
2023-12-28T11:29:05.074Z,93081.00
2023-12-28T11:30:05.139Z,93079.00
2023-12-28T11:31:05.297Z,93076.00
2023-12-28T11:32:05.249Z,93078.00
2023-12-28T11:33:05.445Z,93075.00
2023-12-28T11:34:05.541Z,93073.00
2023-12-28T11:35:05.466Z,93066.00
2023-12-28T11:36:05.566Z,93068.00
2023-12-28T11:37:05.627Z,93066.00
2023-12-28T11:38:05.630Z,93065.00
2023-12-28T11:39:05.711Z,93064.00
2023-12-28T11:40:05.836Z,93070.00
2023-12-28T11:41:05.794Z,93069.00
2023-12-28T11:42:05.857Z,93064.00
2023-12-28T11:43:05.982Z,93056.00
2023-12-28T11:44:06.013Z,93053.00
2023-12-28T11:45:06.091Z,93060.00
2023-12-28T11:46:06.139Z,93056.00